Nearby METAR* Reports

*"METAR [Météorologique Aviation Régulière] is the international standard code format for hourly surface weather observations which is analogous to the SA coding currently used in the US. The acronym roughly translates from French as Aviation Routine Weather Report." (Source: http://gosic.org/wdcmet/us-metar-faq-taf)

 

KTEB - Teterboro, New Jersey, USA
Distance from station: ENE 2mi, 3km
Updated: 12/12/2019 10:51pm
Clear
Clear
 Wind from W
Wind: W 7 mph , 11 km/h
Temperature: 34°F , 1°C
Wind Chill: 28°F , -2°C
Dew Point: 19°F , -7°C
Humidity: 56%
Barometer: 30.64 inHg , 1037.6 hPa
Clouds: Clear
Visibility: 10 miles , 16 km
2019/12/13 03:51 KTEB 130351Z 27006KT 10SM CLR 01/M07 A3064 RMK AO2 SLP375 T00061072
KNYC - Nyc/Central Park, New York, USA
Distance from station: SE 8mi, 13km
Updated: 12/12/2019 10:51pm
Clear
Clear
 Wind from S
Wind: S 3 mph , 6 km/h
Temperature: 36°F , 2°C
Dew Point: 23°F , -5°C
Humidity: 60%
Barometer: 30.66 inHg , 1038.3 hPa
Clouds: Clear
Visibility: 10 miles , 16 km
2019/12/13 03:51 KNYC 130351Z AUTO 17003KT 10SM CLR 02/M05 A3066 RMK AO2 SLP376 T00171050 $
KCDW - Caldwell, New Jersey, USA
Distance from station: W 11mi, 17km
Updated: 12/12/2019 10:53pm
Clear
Clear
 Wind from calm
Wind: Calm
Temperature: 27°F , -3°C
Dew Point: 19°F , -7°C
Humidity: 74%
Barometer: 30.64 inHg , 1037.6 hPa
Clouds: Clear
Visibility: 10 miles , 16 km
2019/12/13 03:53 KCDW 130353Z 00000KT 10SM CLR M03/M07 A3064 RMK AO2 SLP384 T10281072
 
KLGA - Nyc/La Guardia, New York, USA
Distance from station: ESE 12mi, 19km
Updated: 12/12/2019 10:51pm
Mostly cloudy
Mostly cloudy
 Wind from SE
Wind: SE 3 mph , 6 km/h
Temperature: 34°F , 1°C
Dew Point: 19°F , -7°C
Humidity: 56%
Barometer: 30.65 inHg , 1037.9 hPa
Clouds: Mostly cloudy
Visibility: 10 miles , 16 km
Cloud details: Few Clouds 3000 ft
Mostly cloudy 25000 ft
2019/12/13 03:51 KLGA 130351Z 13003KT 10SM FEW030 BKN250 01/M07 A3065 RMK AO2 SLP378 T00061072 $
KEWR - Newark, New Jersey, USA
Distance from station: SSW 13mi, 20km
Updated: 12/12/2019 10:51pm
Mostly cloudy
Mostly cloudy
 Wind from calm
Wind: Calm
Temperature: 34°F , 1°C
Dew Point: 21°F , -6°C
Humidity: 60%
Barometer: 30.65 inHg , 1037.9 hPa
Clouds: Mostly cloudy
Visibility: 10 miles , 16 km
Cloud details: Few Clouds 3000 ft
Mostly cloudy 25000 ft
2019/12/13 03:51 KEWR 130351Z 00000KT 10SM FEW030 BKN250 01/M06 A3065 RMK AO2 SLP379 T00061061
KMMU - Morristown Muni, New Jersey, USA
Distance from station: WSW 18mi, 29km
Updated: 12/12/2019 11:35pm
Clear
Clear
 Wind from calm
Wind: Calm
Temperature: 23°F , -5°C
Dew Point: 23°F , -5°C
Humidity: 100%
Barometer: 30.62 inHg , 1036.9 hPa
Clouds: Clear
Visibility: 10 miles , 16 km
2019/12/13 04:35 KMMU 130435Z AUTO 00000KT 10SM CLR M05/M05 A3062 RMK AO2
 
KLDJ - Linden, New Jersey, USA
Distance from station: SSW 19mi, 30km
Updated: 12/12/2019 11:35pm
Clear
Clear
 Wind from calm
Wind: Calm
Temperature: 30°F , -1°C
Dew Point: 19°F , -7°C
Humidity: 64%
Barometer: 30.64 inHg , 1037.6 hPa
Clouds: Clear
Visibility: 10 miles , 16 km
2019/12/13 04:35 KLDJ 130435Z AUTO 00000KT 10SM CLR M01/M07 A3064 RMK AO2 T10111074
KJFK - Nyc/Jfk Arpt, New York, USA
Distance from station: SE 23mi, 36km
Updated: 12/12/2019 10:51pm
Mostly cloudy
Mostly cloudy
 Wind from NE
Wind: NE 5 mph , 7 km/h
Temperature: 30°F , -1°C
Wind Chill: 25°F , -4°C
Dew Point: 23°F , -5°C
Humidity: 75%
Barometer: 30.66 inHg , 1038.3 hPa
Clouds: Mostly cloudy
Visibility: 10 miles , 16 km
Cloud details: Mostly cloudy 3100 ft
Mostly cloudy 25000 ft
2019/12/13 03:51 KJFK 130351Z 05004KT 10SM BKN031 BKN250 M01/M05 A3066 RMK AO2 SLP383 T10111050 $
KHPN - White Plains, New York, USA
Distance from station: NE 25mi, 40km
Updated: 12/12/2019 10:56pm
Clear
Clear
 Wind from calm
Wind: Calm
Temperature: 27°F , -3°C
Dew Point: 18°F , -8°C
Humidity: 69%
Barometer: 30.62 inHg , 1036.9 hPa
Clouds: Clear
Visibility: 10 miles , 16 km
2019/12/13 03:56 KHPN 130356Z 00000KT 10SM CLR M03/M08 A3062 RMK AO2 SLP381 T10331078
 
KSMQ - Somerville, New Jersey, USA
Distance from station: WSW 35mi, 56km
Updated: 12/12/2019 10:53pm
Clear
Clear
 Wind from calm
Wind: Calm
Temperature: 23°F , -5°C
Dew Point: 19°F , -7°C
Humidity: 86%
Barometer: 30.63 inHg , 1037.3 hPa
Clouds: Clear
Visibility: 10 miles , 16 km
2019/12/13 03:53 KSMQ 130353Z AUTO 00000KT 10SM CLR M05/M07 A3063 RMK AO2 SLP376 T10501067
K12N - Andover, New Jersey, USA
Distance from station: WNW 36mi, 57km
Updated: 12/12/2019 10:54pm

 Wind from SSE
Wind: SSE 3 mph , 6 km/h
Temperature: 28°F , -2°C
Dew Point: 16°F , -9°C
Humidity: 59%
Barometer: 30.60 inHg , 1036.2 hPa
2019/12/13 03:54 K12N 130354Z AUTO 16003KT M02/M09 A3060 RMK AO1 SLP376 T10221089
KFRG - Farmingdale, New York, USA
Distance from station: ESE 36mi, 58km
Updated: 12/12/2019 10:53pm
Few Clouds
Few Clouds
 Wind from ENE
Wind: ENE 3 mph , 6 km/h
Temperature: 27°F , -3°C
Dew Point: 18°F , -8°C
Humidity: 69%
Barometer: 30.66 inHg , 1038.3 hPa
Clouds: Few Clouds
Visibility: 10 miles , 16 km
Cloud details: Few Clouds 3000 ft
2019/12/13 03:53 KFRG 130353Z 06003KT 10SM FEW030 M03/M08 A3066 RMK AO2 SLP382 T10331083
 
KFWN - Sussex, New Jersey, USA
Distance from station: NW 37mi, 60km
Updated: 12/12/2019 10:53pm
Clear
Clear
 Wind from calm
Wind: Calm
Temperature: 21°F , -6°C
Dew Point: 18°F , -8°C
Humidity: 86%
Barometer: 30.60 inHg , 1036.2 hPa
Clouds: Clear
Visibility: 10 miles , 16 km
2019/12/13 03:53 KFWN 130353Z AUTO 00000KT 10SM CLR M06/M08 A3060 RMK AO2 UPB19E30 SLP368 P0000 T10561078
KSWF - Newburgh/Stewart, New York, USA
Distance from station: 0 44mi, 72km
Updated: 12/12/2019 10:45pm
Mostly cloudy
Mostly cloudy
 Wind from varies
Wind: varies 6 mph , 9 km/h
Temperature: 27°F , -3°C
Wind Chill: 20°F , -7°C
Dew Point: 16°F , -9°C
Humidity: 64%
Barometer: 30.61 inHg , 1036.6 hPa
Clouds: Mostly cloudy
Visibility: 10 miles , 16 km
Cloud details: Mostly cloudy 12000 ft
2019/12/13 03:45 KSWF 130345Z VRB05KT 10SM BKN120 M03/M09 A3061
KMGJ - Montgomery, New York, USA
Distance from station: NNW 47mi, 75km
Updated: 12/12/2019 10:54pm
Clear
Clear
 Wind from calm
Wind: Calm
Temperature: 19°F , -7°C
Dew Point: 16°F , -9°C
Humidity: 86%
Barometer: 30.60 inHg , 1036.2 hPa
Clouds: Clear
Visibility: 10 miles , 16 km
2019/12/13 03:54 KMGJ 130354Z AUTO 00000KT 10SM CLR M07/M09 A3060 RMK AO2 SLP370 T10671094
 
KDXR - Danbury, Connecticut, USA
Distance from station: NE 47mi, 76km
Updated: 12/12/2019 10:53pm
Clear
Clear
 Wind from calm
Wind: Calm
Temperature: 19°F , -7°C
Dew Point: 16°F , -9°C
Humidity: 86%
Barometer: 30.64 inHg , 1037.6 hPa
Clouds: Clear
Visibility: 10 miles , 16 km
2019/12/13 03:53 KDXR 130353Z AUTO 00000KT 10SM CLR M07/M09 A3064 RMK AO2 SLP382 I1000 T10721089
KBLM - Belmar/Farmdale, New Jersey, USA
Distance from station: S 48mi, 77km
Updated: 12/12/2019 10:56pm
Clear
Clear
 Wind from calm
Wind: Calm
Temperature: 23°F , -5°C
Dew Point: 19°F , -7°C
Humidity: 86%
Barometer: 30.65 inHg , 1037.9 hPa
Clouds: Clear
Visibility: 10 miles , 16 km
2019/12/13 03:56 KBLM 130356Z AUTO 00000KT 10SM CLR M05/M07 A3065 RMK AO2 SLP380 T10501067 FZRANO